createdAt,value
2023-12-23T00:00:44.957Z,97.83
2023-12-23T00:01:45.004Z,97.94
2023-12-23T00:02:44.978Z,98.14
2023-12-23T00:03:45.100Z,98.25
2023-12-23T00:04:44.912Z,98.72
2023-12-23T00:05:44.936Z,98.20
2023-12-23T00:06:44.955Z,97.37
2023-12-23T00:07:44.926Z,97.58
2023-12-23T00:08:44.874Z,97.62
2023-12-23T00:09:44.860Z,97.62
2023-12-23T00:10:44.931Z,97.41
2023-12-23T00:11:44.848Z,97.62
2023-12-23T00:12:44.852Z,97.62
2023-12-23T00:13:44.784Z,97.31
2023-12-23T00:14:44.891Z,97.52
2023-12-23T00:15:44.781Z,97.83
2023-12-23T00:16:44.808Z,97.94
2023-12-23T00:17:48.469Z,97.62
2023-12-23T00:18:44.945Z,97.41
2023-12-23T00:19:44.869Z,97.72
2023-12-23T00:20:44.815Z,97.31
2023-12-23T00:21:44.754Z,97.31
2023-12-23T00:22:44.813Z,97.00
2023-12-23T00:23:44.715Z,97.41
2023-12-23T00:24:44.681Z,97.62
2023-12-23T00:25:44.701Z,97.62
2023-12-23T00:26:44.755Z,97.72
2023-12-23T00:27:44.721Z,97.68
2023-12-23T00:28:44.681Z,97.41
2023-12-23T00:29:44.628Z,97.27
2023-12-23T00:30:44.879Z,97.31
2023-12-23T00:31:44.627Z,97.31
2023-12-23T00:32:44.616Z,97.62
2023-12-23T00:33:44.654Z,97.94
2023-12-23T00:34:44.662Z,97.94
2023-12-23T00:35:44.555Z,98.04
2023-12-23T00:36:44.557Z,98.25
2023-12-23T00:37:44.576Z,97.94
2023-12-23T00:38:44.591Z,98.14
2023-12-23T00:39:44.523Z,98.46
2023-12-23T00:40:44.567Z,98.77
2023-12-23T00:41:44.512Z,99.08
2023-12-23T00:42:44.530Z,99.08
2023-12-23T00:43:44.492Z,99.18
2023-12-23T00:44:44.528Z,99.29
2023-12-23T00:45:44.455Z,99.50
2023-12-23T00:46:44.472Z,99.71
2023-12-23T00:47:44.504Z,99.91
2023-12-23T00:48:44.513Z,99.99
2023-12-23T00:49:44.473Z,99.91
2023-12-23T00:50:44.389Z,99.99
2023-12-23T00:51:44.418Z,99.99
2023-12-23T00:52:44.443Z,99.81
2023-12-23T00:53:47.307Z,99.60
2023-12-23T00:54:44.392Z,99.91
2023-12-23T00:55:44.419Z,99.81
2023-12-23T00:56:44.374Z,99.29
2023-12-23T00:57:44.361Z,99.29
2023-12-23T00:58:44.335Z,99.50
2023-12-23T00:59:44.397Z,99.81
2023-12-23T01:00:44.352Z,99.81
2023-12-23T01:01:44.337Z,99.81
2023-12-23T01:02:44.355Z,99.71
2023-12-23T01:03:44.465Z,99.81
2023-12-23T01:04:44.368Z,99.81
2023-12-23T01:05:44.265Z,99.99
2023-12-23T01:06:44.281Z,99.71
2023-12-23T01:07:44.316Z,99.60
2023-12-23T01:08:44.384Z,99.81
2023-12-23T01:09:44.234Z,99.99
2023-12-23T01:10:44.386Z,99.96
2023-12-23T01:11:44.269Z,99.75
2023-12-23T01:12:44.205Z,99.99
2023-12-23T01:13:44.186Z,99.99
2023-12-23T01:14:44.152Z,99.99
2023-12-23T01:15:44.221Z,99.85
2023-12-23T01:16:44.216Z,99.96
2023-12-23T01:17:44.176Z,99.99
2023-12-23T01:18:44.211Z,99.99
2023-12-23T01:19:44.169Z,99.99
2023-12-23T01:20:44.194Z,99.99
2023-12-23T01:21:44.076Z,99.99
2023-12-23T01:22:44.147Z,99.99
2023-12-23T01:23:44.125Z,99.99
2023-12-23T01:24:44.057Z,99.99
2023-12-23T01:25:44.132Z,99.99
2023-12-23T01:26:44.064Z,99.99
2023-12-23T01:27:44.030Z,99.99
2023-12-23T01:28:44.223Z,99.99
2023-12-23T01:29:44.014Z,99.99
2023-12-23T01:30:44.020Z,99.99
2023-12-23T01:31:44.000Z,99.99
2023-12-23T01:32:44.080Z,99.99
2023-12-23T01:33:44.131Z,99.99
2023-12-23T01:34:44.029Z,99.99
2023-12-23T01:35:43.941Z,99.99
2023-12-23T01:36:43.972Z,99.99
2023-12-23T01:37:43.987Z,99.99
2023-12-23T01:38:43.996Z,99.99
2023-12-23T01:39:43.902Z,99.99
2023-12-23T01:40:43.939Z,99.60
2023-12-23T01:41:43.865Z,98.97
2023-12-23T01:42:43.884Z,98.97
2023-12-23T01:43:43.876Z,98.25
2023-12-23T01:44:43.848Z,97.52
2023-12-23T01:45:43.846Z,97.41
2023-12-23T01:46:43.896Z,97.62
2023-12-23T01:47:43.871Z,97.89
2023-12-23T01:48:43.872Z,98.31
2023-12-23T01:49:43.836Z,97.47
2023-12-23T01:50:43.777Z,97.37
2023-12-23T01:51:43.791Z,97.37
2023-12-23T01:52:43.776Z,97.37
2023-12-23T01:53:43.767Z,97.99
2023-12-23T01:54:43.735Z,97.68
2023-12-23T01:55:43.766Z,96.85
2023-12-23T01:56:43.720Z,96.22
2023-12-23T01:57:43.697Z,96.01
2023-12-23T01:58:43.790Z,96.53
2023-12-23T01:59:43.690Z,96.64
2023-12-23T02:00:43.707Z,96.75
2023-12-23T02:01:43.735Z,96.33
2023-12-23T02:02:43.917Z,95.39
2023-12-23T02:03:43.728Z,94.76
2023-12-23T02:04:43.630Z,94.76
2023-12-23T02:05:43.852Z,95.18
2023-12-23T02:06:43.628Z,95.39
2023-12-23T02:07:43.639Z,95.08
2023-12-23T02:08:43.597Z,94.56
2023-12-23T02:09:43.584Z,94.45
2023-12-23T02:10:43.615Z,94.56
2023-12-23T02:11:43.545Z,94.98
2023-12-23T02:12:43.607Z,94.45
2023-12-23T02:13:43.587Z,94.98
2023-12-23T02:14:43.534Z,94.76
2023-12-23T02:15:43.525Z,95.29
2023-12-23T02:16:43.522Z,95.39
2023-12-23T02:17:43.628Z,94.87
2023-12-23T02:18:43.543Z,93.73
2023-12-23T02:19:43.513Z,93.73
2023-12-23T02:20:43.472Z,93.73
2023-12-23T02:21:43.471Z,94.35
2023-12-23T02:22:43.447Z,94.56
2023-12-23T02:23:43.434Z,94.87
2023-12-23T02:24:43.409Z,94.98
2023-12-23T02:25:43.433Z,94.66
2023-12-23T02:26:43.390Z,94.35
2023-12-23T02:27:43.371Z,94.04
2023-12-23T02:28:43.429Z,94.56
2023-12-23T02:29:43.376Z,94.08
2023-12-23T02:30:43.397Z,94.18
2023-12-23T02:31:43.361Z,93.87
2023-12-23T02:32:43.403Z,94.29
2023-12-23T02:33:43.417Z,93.87
2023-12-23T02:34:43.310Z,94.49
2023-12-23T02:35:43.330Z,94.70
2023-12-23T02:36:43.276Z,93.77
2023-12-23T02:37:43.435Z,93.87
2023-12-23T02:38:43.279Z,93.98
2023-12-23T02:39:43.281Z,93.98
2023-12-23T02:40:43.340Z,94.49
2023-12-23T02:41:43.254Z,94.70
2023-12-23T02:42:43.234Z,94.08
2023-12-23T02:43:43.273Z,94.08
2023-12-23T02:44:43.215Z,94.60
2023-12-23T02:45:43.246Z,94.60
2023-12-23T02:46:43.261Z,94.60
2023-12-23T02:47:43.384Z,94.81
2023-12-23T02:48:43.280Z,95.33
2023-12-23T02:49:43.194Z,94.92
2023-12-23T02:50:43.144Z,94.75
2023-12-23T02:51:43.162Z,94.54
2023-12-23T05:47:09.222Z,88.58
2023-12-23T05:48:10.148Z,88.54
2023-12-23T05:49:09.972Z,88.96
2023-12-23T05:50:09.921Z,89.41
2023-12-23T05:51:09.904Z,89.37
2023-12-23T05:52:09.902Z,89.37
2023-12-23T05:53:09.928Z,89.37
2023-12-23T05:54:09.859Z,88.64
2023-12-23T05:55:09.862Z,89.27
2023-12-23T05:56:09.993Z,90.00
2023-12-23T05:57:09.853Z,89.79
2023-12-23T05:58:09.814Z,89.27
2023-12-23T05:59:09.831Z,89.06
2023-12-23T06:00:12.594Z,89.89
2023-12-23T06:01:09.854Z,89.06
2023-12-23T06:02:09.799Z,89.27
2023-12-23T06:03:09.764Z,88.85
2023-12-23T06:06:07.287Z,88.96
2023-12-23T06:07:09.997Z,89.06
2023-12-23T06:08:08.586Z,89.06
2023-12-23T06:09:14.690Z,89.06
2023-12-23T06:10:08.069Z,89.02
2023-12-23T06:11:08.001Z,88.92
2023-12-23T06:12:10.138Z,89.54
2023-12-23T06:13:08.964Z,90.20
2023-12-23T06:14:07.680Z,89.85
2023-12-23T06:15:07.857Z,89.64
2023-12-23T06:16:07.811Z,89.85
2023-12-23T06:17:07.702Z,89.95
2023-12-23T06:18:07.786Z,89.75
2023-12-23T06:19:07.746Z,89.75
2023-12-23T06:20:07.716Z,90.16
2023-12-23T06:21:07.737Z,90.37
2023-12-23T06:22:07.717Z,90.69
2023-12-23T06:23:07.767Z,90.26
2023-12-23T06:24:07.980Z,89.75
2023-12-23T06:25:07.779Z,90.16
2023-12-23T06:26:07.856Z,89.64
2023-12-23T06:27:07.837Z,89.95
2023-12-23T06:28:07.676Z,90.26
2023-12-23T06:29:08.037Z,90.06
2023-12-23T06:30:08.379Z,90.06
2023-12-23T06:31:08.105Z,90.06
2023-12-23T06:32:07.959Z,90.26
2023-12-23T06:33:07.686Z,90.06
2023-12-23T06:34:07.922Z,90.37
2023-12-23T06:35:07.744Z,90.79
2023-12-23T06:36:08.247Z,90.58
2023-12-23T06:37:09.084Z,90.79
2023-12-23T06:47:30.764Z,90.89
2023-12-23T06:48:34.523Z,90.69
2023-12-23T06:49:31.818Z,90.58
2023-12-23T06:50:31.572Z,90.89
2023-12-23T06:51:31.570Z,90.79
2023-12-23T06:52:31.639Z,91.10
2023-12-23T06:53:31.542Z,91.00
2023-12-23T06:54:31.598Z,91.00
2023-12-23T06:55:31.522Z,90.79
2023-12-23T06:56:31.553Z,90.89
2023-12-23T06:57:31.525Z,90.79
2023-12-23T06:58:31.512Z,90.54
2023-12-23T06:59:38.252Z,90.58
2023-12-23T07:00:31.775Z,91.00
2023-12-23T07:01:31.613Z,90.95
2023-12-23T07:02:31.460Z,91.16
2023-12-23T07:03:31.497Z,91.78
2023-12-23T07:04:31.541Z,91.89
2023-12-23T07:05:31.560Z,91.27
2023-12-23T07:06:31.420Z,91.58
2023-12-23T07:07:31.386Z,91.58
2023-12-23T07:08:31.397Z,91.06
2023-12-23T07:09:31.365Z,91.58
2023-12-23T07:10:31.388Z,91.47
2023-12-23T07:11:31.361Z,91.06
2023-12-23T07:12:31.333Z,90.85
2023-12-23T07:13:31.392Z,91.16
2023-12-23T07:14:31.337Z,90.54
2023-12-23T07:15:31.321Z,90.54
2023-12-23T07:16:31.327Z,90.44
2023-12-23T07:17:38.610Z,90.64
2023-12-23T07:18:31.382Z,90.44
2023-12-23T07:19:31.327Z,90.54
2023-12-23T07:20:31.324Z,90.23
2023-12-23T07:21:31.256Z,90.44
2023-12-23T07:22:31.254Z,90.33
2023-12-23T07:23:32.738Z,90.85
2023-12-23T07:24:31.219Z,90.85
2023-12-23T07:25:31.225Z,90.85
2023-12-23T07:26:31.234Z,91.27
2023-12-23T07:27:31.195Z,90.75
2023-12-23T07:28:31.192Z,90.95
2023-12-23T07:29:31.172Z,90.95
2023-12-23T07:30:31.235Z,91.58
2023-12-23T07:31:31.171Z,91.27
2023-12-23T07:32:31.261Z,91.58
2023-12-23T07:33:31.202Z,91.47
2023-12-23T07:34:31.195Z,91.47
2023-12-23T07:35:31.169Z,91.47
2023-12-23T07:36:31.125Z,91.47
2023-12-23T07:37:31.086Z,91.58
2023-12-23T07:38:31.127Z,91.99
2023-12-23T07:39:31.066Z,91.68
2023-12-23T07:40:32.902Z,91.47
2023-12-23T07:41:31.113Z,91.27
2023-12-23T07:42:31.064Z,91.27
2023-12-23T07:43:31.037Z,91.37
2023-12-23T07:44:31.026Z,91.27
2023-12-23T07:45:31.017Z,91.27
2023-12-23T07:46:31.020Z,90.95
2023-12-23T07:47:31.085Z,91.06
2023-12-23T07:48:30.984Z,90.95
2023-12-23T07:49:30.960Z,91.27
2023-12-23T07:50:30.996Z,91.16
2023-12-23T07:51:30.970Z,91.47
2023-12-23T07:52:30.940Z,91.27
2023-12-23T07:53:30.989Z,91.47
2023-12-23T07:54:30.978Z,91.68
2023-12-23T07:55:30.924Z,92.41
2023-12-23T07:56:30.919Z,91.99
2023-12-23T07:57:30.924Z,91.89
2023-12-23T07:58:30.880Z,91.68
2023-12-23T07:59:30.854Z,91.89
2023-12-23T08:00:30.892Z,91.78
2023-12-23T08:01:30.876Z,91.58
2023-12-23T08:02:30.849Z,91.89
2023-12-23T08:03:30.866Z,91.99
2023-12-23T08:04:30.838Z,92.10
2023-12-23T08:05:30.841Z,91.64
2023-12-23T08:06:30.961Z,91.58
2023-12-23T08:07:30.791Z,92.10
2023-12-23T08:08:30.810Z,92.51
2023-12-23T08:09:30.785Z,92.51
2023-12-23T08:10:30.757Z,92.16
2023-12-23T08:11:30.747Z,92.20
2023-12-23T08:12:30.758Z,92.10
2023-12-23T08:13:30.727Z,92.41
2023-12-23T08:14:30.808Z,92.72
2023-12-23T08:15:30.735Z,92.20
2023-12-23T08:16:30.726Z,92.30
2023-12-23T08:17:30.727Z,92.82
2023-12-23T08:18:30.759Z,93.14
2023-12-23T08:19:30.749Z,92.93
2023-12-23T08:20:30.698Z,92.61
2023-12-23T08:21:30.676Z,92.61
2023-12-23T08:22:30.635Z,92.61
2023-12-23T08:23:30.646Z,92.20
2023-12-23T08:24:30.614Z,92.41
2023-12-23T08:25:30.679Z,92.20
2023-12-23T08:26:30.626Z,92.30
2023-12-23T08:27:30.586Z,92.41
2023-12-23T08:29:53.054Z,92.20
2023-12-23T08:30:51.982Z,92.10
2023-12-23T08:31:51.691Z,92.20
2023-12-23T08:32:51.977Z,92.30
2023-12-23T08:33:51.741Z,91.95
2023-12-23T08:34:51.776Z,92.20
2023-12-23T08:35:51.562Z,92.26
2023-12-23T08:36:51.569Z,92.57
2023-12-23T08:37:51.736Z,92.36
2023-12-23T08:38:51.607Z,92.36
2023-12-23T08:39:51.494Z,92.41
2023-12-23T08:40:51.563Z,92.68
2023-12-23T08:41:51.508Z,92.57
2023-12-23T08:42:51.724Z,92.68
2023-12-23T08:43:51.499Z,92.88
2023-12-23T08:44:51.472Z,92.88
2023-12-23T08:45:51.437Z,92.88
2023-12-23T08:46:51.472Z,92.99
2023-12-23T08:47:51.826Z,93.10
2023-12-23T08:48:51.521Z,92.88
2023-12-23T08:49:51.457Z,92.68
2023-12-23T08:50:51.404Z,92.68
2023-12-23T08:51:51.413Z,92.68
2023-12-23T08:52:51.408Z,93.20
2023-12-23T08:53:51.354Z,92.88
2023-12-23T08:54:51.366Z,92.88
2023-12-23T08:55:51.358Z,92.88
2023-12-23T08:56:51.580Z,93.10
2023-12-23T08:59:01.454Z,93.20
2023-12-23T09:00:02.467Z,93.30
2023-12-23T09:01:02.340Z,92.88
2023-12-23T09:02:02.310Z,92.68
2023-12-23T09:03:02.354Z,92.88
2023-12-23T09:04:02.230Z,92.78
2023-12-23T09:05:02.400Z,92.99
2023-12-23T09:06:02.303Z,93.20
2023-12-23T09:07:02.189Z,92.57
2023-12-23T09:08:02.262Z,92.57
2023-12-23T09:09:02.268Z,92.99
2023-12-23T09:10:02.172Z,92.47
2023-12-23T09:11:02.204Z,92.47
2023-12-23T09:12:02.134Z,92.68
2023-12-23T09:13:02.173Z,92.36
2023-12-23T09:14:02.142Z,92.47
2023-12-23T09:15:02.101Z,92.36
2023-12-23T09:16:02.119Z,92.53
2023-12-23T09:17:02.153Z,92.84
2023-12-23T09:18:02.185Z,92.74
2023-12-23T09:19:02.201Z,92.63
2023-12-23T09:20:02.137Z,92.53
2023-12-23T09:21:02.052Z,92.43
2023-12-23T09:22:02.072Z,92.57
2023-12-23T09:23:02.074Z,93.05
2023-12-23T09:24:01.988Z,93.26
2023-12-23T09:25:02.007Z,93.78
2023-12-23T09:26:02.026Z,93.78
2023-12-23T09:27:01.964Z,93.99
2023-12-23T09:28:01.990Z,94.51
2023-12-23T09:29:02.048Z,94.40
2023-12-23T09:30:02.013Z,94.30
2023-12-23T09:31:02.107Z,93.88
2023-12-23T09:32:02.525Z,94.30
2023-12-23T09:33:02.026Z,94.40
2023-12-23T09:34:01.999Z,94.03
2023-12-23T09:35:05.733Z,93.82
2023-12-23T09:36:01.888Z,94.34
2023-12-23T09:37:01.869Z,93.72
2023-12-23T09:38:01.954Z,93.20
2023-12-23T09:39:01.877Z,93.30
2023-12-23T09:40:01.861Z,93.20
2023-12-23T09:41:01.881Z,93.10
2023-12-23T09:42:01.846Z,93.93
2023-12-23T09:43:01.873Z,94.34
2023-12-23T09:44:01.835Z,94.55
2023-12-23T09:45:01.905Z,94.34
2023-12-23T09:46:01.807Z,94.34
2023-12-23T09:47:01.813Z,94.24
2023-12-23T09:48:01.956Z,94.45
2023-12-23T09:49:04.908Z,94.55
2023-12-23T09:50:01.813Z,93.93
2023-12-23T09:51:01.745Z,94.13
2023-12-23T09:52:01.751Z,94.24
2023-12-23T09:53:01.973Z,94.38
2023-12-23T09:54:01.835Z,94.18
2023-12-23T09:55:03.469Z,94.38
2023-12-23T09:56:01.708Z,94.70
2023-12-23T09:57:01.675Z,95.32
2023-12-23T09:58:01.673Z,95.73
2023-12-23T09:59:01.678Z,95.84
2023-12-23T10:00:01.660Z,96.25
2023-12-23T10:01:01.606Z,96.78
2023-12-23T10:02:01.671Z,96.25
2023-12-23T10:03:01.650Z,95.73
2023-12-23T10:04:01.599Z,95.32
2023-12-23T10:05:01.672Z,95.42
2023-12-23T10:06:01.617Z,95.73
2023-12-23T10:07:01.554Z,95.73
2023-12-23T10:08:01.547Z,95.73
2023-12-23T10:09:01.551Z,95.73
2023-12-23T10:10:01.532Z,95.53
2023-12-23T10:11:01.586Z,95.53
2023-12-23T10:12:01.504Z,95.53
2023-12-23T10:13:01.504Z,95.73
2023-12-23T10:14:01.531Z,96.15
2023-12-23T10:15:01.536Z,96.47
2023-12-23T10:16:01.463Z,96.04
2023-12-23T10:17:01.491Z,95.32
2023-12-23T10:18:01.519Z,95.32
2023-12-23T10:19:01.501Z,95.11
2023-12-23T10:20:01.449Z,94.80
2023-12-23T10:21:01.418Z,95.11
2023-12-23T10:22:04.943Z,95.11
2023-12-23T10:23:01.393Z,95.53
2023-12-23T10:24:01.380Z,95.47
2023-12-23T10:25:01.394Z,95.53
2023-12-23T10:26:01.392Z,95.73
2023-12-23T10:27:01.394Z,96.04
2023-12-23T10:28:01.332Z,95.73
2023-12-23T10:29:01.322Z,95.11
2023-12-23T10:30:01.347Z,94.90
2023-12-23T10:31:01.350Z,94.90
2023-12-23T10:32:01.342Z,94.95
2023-12-23T10:33:01.301Z,95.15
2023-12-23T10:34:01.300Z,95.15
2023-12-23T10:35:01.553Z,95.47
2023-12-23T10:36:01.245Z,95.26
2023-12-23T10:37:01.241Z,95.05
2023-12-23T10:38:01.240Z,95.05
2023-12-23T10:39:01.224Z,95.26
2023-12-23T10:40:01.205Z,95.57
2023-12-23T10:41:01.232Z,95.89
2023-12-23T10:42:01.179Z,95.67
2023-12-23T10:43:01.158Z,95.67
2023-12-23T10:44:01.226Z,94.95
2023-12-23T10:45:01.150Z,94.95
2023-12-23T10:46:01.151Z,94.74
2023-12-23T10:47:01.165Z,95.05
2023-12-23T10:48:01.218Z,95.36
2023-12-23T10:49:01.286Z,95.67
2023-12-23T10:50:01.139Z,95.67
2023-12-23T10:51:01.722Z,95.15
2023-12-23T10:52:01.063Z,95.36
2023-12-23T10:53:01.067Z,95.47
2023-12-23T10:54:01.056Z,95.26
2023-12-23T10:55:01.054Z,95.26
2023-12-23T10:56:01.083Z,95.30
2023-12-23T10:57:01.076Z,95.67
2023-12-23T10:58:00.996Z,96.09
2023-12-23T10:59:01.040Z,96.09
2023-12-23T11:00:00.992Z,95.89
2023-12-23T11:01:01.056Z,95.78
2023-12-23T11:02:01.034Z,95.78
2023-12-23T11:03:01.016Z,95.72
2023-12-23T11:04:01.024Z,95.83
2023-12-23T11:05:00.965Z,95.83
2023-12-23T11:06:00.952Z,95.93
2023-12-23T11:07:01.122Z,95.83
2023-12-23T11:08:07.225Z,95.40
2023-12-23T11:09:00.952Z,95.30
2023-12-23T11:10:00.887Z,95.51
2023-12-23T11:11:00.957Z,95.57
2023-12-23T11:12:00.880Z,95.78
2023-12-23T11:13:01.310Z,95.78
2023-12-23T11:14:00.903Z,95.72
2023-12-23T11:15:00.869Z,95.40
2023-12-23T11:16:00.831Z,95.93
2023-12-23T11:17:00.902Z,95.93
2023-12-23T11:18:00.895Z,95.93
2023-12-23T11:19:00.864Z,96.24
2023-12-23T11:20:01.105Z,96.03
2023-12-23T11:21:08.867Z,95.93
2023-12-23T11:22:00.806Z,96.03
2023-12-23T11:23:00.880Z,96.14
2023-12-23T11:24:01.216Z,96.66
2023-12-23T11:25:00.748Z,96.86
2023-12-23T11:26:00.794Z,96.76
2023-12-23T11:27:00.730Z,96.66
2023-12-23T11:28:00.717Z,96.55
2023-12-23T11:29:00.802Z,96.45
2023-12-23T11:30:01.589Z,96.14
2023-12-23T11:31:00.778Z,96.14
2023-12-23T11:32:00.700Z,96.34
2023-12-23T11:33:00.762Z,96.45
2023-12-23T11:34:00.708Z,96.86
2023-12-23T11:35:00.688Z,97.49
2023-12-23T11:36:01.750Z,97.49
2023-12-23T11:37:00.653Z,97.59
2023-12-23T11:38:00.678Z,97.49
2023-12-23T11:39:00.629Z,97.17
2023-12-23T11:40:00.625Z,96.97
2023-12-23T11:41:00.613Z,97.28
2023-12-23T11:42:00.561Z,97.38
2023-12-23T11:43:00.554Z,97.38
2023-12-23T11:44:00.569Z,97.07
2023-12-23T11:45:00.528Z,97.17
2023-12-23T11:46:00.540Z,97.59
2023-12-23T11:47:00.509Z,97.80
2023-12-23T11:48:00.737Z,97.59
2023-12-23T11:49:00.476Z,97.59
2023-12-23T11:50:00.521Z,97.49
2023-12-23T11:51:00.462Z,97.59
2023-12-23T11:52:00.432Z,97.17
2023-12-23T11:53:00.540Z,96.76
2023-12-23T11:54:00.689Z,97.17
2023-12-23T11:55:00.404Z,97.07
2023-12-23T11:56:00.421Z,96.86
2023-12-23T11:57:00.422Z,96.76
2023-12-23T11:58:00.348Z,97.07
2023-12-23T11:59:00.357Z,96.45
2023-12-23T12:00:00.499Z,96.66
2023-12-23T12:01:00.368Z,96.86
2023-12-23T12:02:00.364Z,97.17
2023-12-23T12:03:00.342Z,97.07
2023-12-23T12:04:00.365Z,96.24
2023-12-23T12:05:00.576Z,95.62
2023-12-23T12:06:00.655Z,96.03
2023-12-23T12:07:00.261Z,95.93
2023-12-23T12:08:00.347Z,95.72
2023-12-23T12:09:00.245Z,96.24
2023-12-23T12:10:00.358Z,96.14
2023-12-23T12:11:03.410Z,96.24
2023-12-23T12:12:00.204Z,96.14
2023-12-23T12:13:00.250Z,95.51
2023-12-23T12:14:00.749Z,94.78
2023-12-23T12:15:00.218Z,94.72
2023-12-23T12:16:00.200Z,95.03
2023-12-23T12:17:00.233Z,95.14
2023-12-23T12:18:00.356Z,94.62
2023-12-23T12:19:00.324Z,93.99
2023-12-23T12:20:00.207Z,94.51
2023-12-23T12:21:00.123Z,94.51
2023-12-23T12:22:00.138Z,95.14
2023-12-23T12:23:00.181Z,95.14
2023-12-23T12:24:00.130Z,95.66
2023-12-23T12:25:00.125Z,95.87
2023-12-23T12:26:00.095Z,95.66
2023-12-23T12:27:00.076Z,94.93
2023-12-23T12:28:00.167Z,95.03
2023-12-23T12:29:00.064Z,95.66
2023-12-23T12:30:00.051Z,95.03
2023-12-23T12:31:00.035Z,94.82
2023-12-23T12:32:00.108Z,94.82
2023-12-23T12:33:00.085Z,94.51
2023-12-23T12:34:00.110Z,94.72
2023-12-23T12:35:00.017Z,94.51
2023-12-23T12:35:59.968Z,94.41
2023-12-23T12:36:59.965Z,94.31
2023-12-23T12:38:05.180Z,94.51
2023-12-23T12:39:00.027Z,95.25
2023-12-23T12:40:02.665Z,95.03
2023-12-23T12:40:59.930Z,95.25
2023-12-23T12:41:59.928Z,95.56
2023-12-23T12:42:59.893Z,95.87
2023-12-23T12:43:59.947Z,95.14
2023-12-23T12:44:59.861Z,94.51
2023-12-23T12:45:59.853Z,94.41
2023-12-23T12:46:59.894Z,94.72
2023-12-23T12:47:59.974Z,95.03
2023-12-23T12:49:02.703Z,95.45
2023-12-23T12:50:06.192Z,95.25
2023-12-23T12:50:59.920Z,95.62
2023-12-23T12:53:16.301Z,96.14
2023-12-23T12:54:17.056Z,95.62
2023-12-23T12:55:19.710Z,94.68
2023-12-23T12:56:17.027Z,94.47
2023-12-23T12:57:17.546Z,94.16
2023-12-23T12:58:17.561Z,94.37
2023-12-23T12:59:40.962Z,94.68
2023-12-23T13:00:16.716Z,95.09
2023-12-23T13:02:40.630Z,94.99
2023-12-23T13:03:41.618Z,94.89
2023-12-23T13:04:41.608Z,94.89
2023-12-23T13:05:41.722Z,94.78
2023-12-23T13:06:41.559Z,93.85
2023-12-23T13:07:41.744Z,94.06
2023-12-23T13:08:42.584Z,94.26
2023-12-23T13:09:41.511Z,94.89
2023-12-23T13:10:41.843Z,95.30
2023-12-23T13:11:41.467Z,95.93
2023-12-23T13:12:41.446Z,95.30
2023-12-23T13:13:41.421Z,94.99
2023-12-23T13:14:41.464Z,95.30
2023-12-23T13:15:41.413Z,95.62
2023-12-23T13:16:41.968Z,95.83
2023-12-23T13:17:41.623Z,95.51
2023-12-23T13:18:49.300Z,95.62
2023-12-23T13:19:41.435Z,95.93
2023-12-23T13:20:41.446Z,95.51
2023-12-23T13:21:41.345Z,95.62
2023-12-23T13:22:41.305Z,95.83
2023-12-23T13:23:41.352Z,95.40
2023-12-23T13:24:41.347Z,95.09
2023-12-23T13:25:41.338Z,95.62
2023-12-23T13:26:41.295Z,96.14
2023-12-23T13:27:41.289Z,96.55
2023-12-23T13:28:41.271Z,96.45
2023-12-23T13:29:41.303Z,95.83
2023-12-23T13:30:41.616Z,95.83
2023-12-23T13:31:41.694Z,95.93
2023-12-23T13:32:41.271Z,95.83
2023-12-23T13:33:41.402Z,95.83
2023-12-23T13:34:41.202Z,96.14
2023-12-23T13:35:41.287Z,95.72
2023-12-23T13:36:41.188Z,96.03
2023-12-23T13:37:41.201Z,95.62
2023-12-23T13:38:41.163Z,95.62
2023-12-23T13:39:41.179Z,95.93
2023-12-23T13:40:41.166Z,95.93
2023-12-23T13:41:41.141Z,96.24
2023-12-23T13:42:41.120Z,96.24
2023-12-23T13:43:41.115Z,95.93
2023-12-23T13:44:41.200Z,96.03
2023-12-23T13:45:41.126Z,96.34
2023-12-23T13:46:41.078Z,96.41
2023-12-23T13:47:41.185Z,96.51
2023-12-23T13:48:41.192Z,96.30
2023-12-23T13:49:41.209Z,95.78
2023-12-23T13:50:41.062Z,95.57
2023-12-23T13:51:41.139Z,95.78
2023-12-23T13:52:41.430Z,95.47
2023-12-23T13:53:41.069Z,95.78
2023-12-23T13:54:41.042Z,95.93
2023-12-23T13:55:40.998Z,96.03
2023-12-23T13:56:41.011Z,96.20
2023-12-23T13:57:40.968Z,96.51
2023-12-23T13:58:40.944Z,96.20
2023-12-23T13:59:40.965Z,95.67
2023-12-23T14:02:04.518Z,95.99
2023-12-23T14:03:05.389Z,96.30
2023-12-23T14:04:05.582Z,96.09
2023-12-23T14:05:05.431Z,96.09
2023-12-23T14:06:05.516Z,96.30
2023-12-23T14:07:05.408Z,96.51
2023-12-23T14:14:21.477Z,96.09
2023-12-23T14:15:22.412Z,96.20
2023-12-23T14:16:22.339Z,96.30
2023-12-23T14:17:22.287Z,96.30
2023-12-23T14:18:22.278Z,96.20
2023-12-23T14:19:22.292Z,96.20
2023-12-23T14:20:22.366Z,96.09
2023-12-23T14:21:22.296Z,95.99
2023-12-23T14:22:22.276Z,96.09
2023-12-23T14:23:22.386Z,96.20
2023-12-23T14:24:22.192Z,95.99
2023-12-23T14:25:22.209Z,96.20
2023-12-23T14:26:22.186Z,96.61
2023-12-23T14:27:22.177Z,96.92
2023-12-23T14:28:30.847Z,96.09
2023-12-23T14:29:22.227Z,96.20
2023-12-23T14:30:22.271Z,96.51
2023-12-23T14:31:22.094Z,96.20
2023-12-23T14:32:22.163Z,96.41
2023-12-23T14:33:22.152Z,96.61
2023-12-23T14:34:22.117Z,96.72
2023-12-23T14:35:22.111Z,96.82
2023-12-23T14:36:22.108Z,96.51
2023-12-23T14:37:22.037Z,96.51
2023-12-23T14:38:22.095Z,96.61
2023-12-23T14:39:24.659Z,96.61
2023-12-23T14:40:22.034Z,96.51
2023-12-23T14:41:22.056Z,96.51
2023-12-23T14:42:21.986Z,96.61
2023-12-23T14:43:21.961Z,96.61
2023-12-23T14:44:22.015Z,96.30
2023-12-23T14:45:21.961Z,96.51
2023-12-23T14:46:21.976Z,96.61
2023-12-23T14:47:22.009Z,96.61
2023-12-23T14:48:21.983Z,96.82
2023-12-23T14:49:21.984Z,96.61
2023-12-23T14:50:21.951Z,96.72
2023-12-23T14:51:21.902Z,96.61
2023-12-23T14:52:21.887Z,96.51
2023-12-23T14:53:21.911Z,96.51
2023-12-23T14:54:21.885Z,96.72
2023-12-23T14:55:21.865Z,96.82
2023-12-23T14:56:21.872Z,96.72
2023-12-23T14:57:21.843Z,96.51
2023-12-23T14:58:21.845Z,96.41
2023-12-23T14:59:21.936Z,96.51
2023-12-23T15:00:21.826Z,96.72
2023-12-23T15:01:21.810Z,96.72
2023-12-23T15:02:21.849Z,96.72
2023-12-23T15:03:21.768Z,96.61
2023-12-23T15:04:21.815Z,96.72
2023-12-23T15:05:21.816Z,96.92
2023-12-23T15:06:21.850Z,97.13
2023-12-23T15:07:21.731Z,96.92
2023-12-23T15:08:21.785Z,96.41
2023-12-23T15:09:21.716Z,96.36
2023-12-23T15:10:21.702Z,96.04
2023-12-23T15:11:21.685Z,95.94
2023-12-23T15:12:21.709Z,95.42
2023-12-23T15:13:21.685Z,95.01
2023-12-23T15:14:21.701Z,95.21
2023-12-23T15:15:21.648Z,95.21
2023-12-23T15:16:21.642Z,95.32
2023-12-23T15:17:21.660Z,95.42
2023-12-23T15:18:21.839Z,95.53
2023-12-23T15:19:21.653Z,95.53
2023-12-23T15:20:21.683Z,95.42
2023-12-23T15:21:21.572Z,94.80
2023-12-23T15:22:21.585Z,94.38
2023-12-23T15:23:21.635Z,94.18
2023-12-23T15:24:21.638Z,94.59
2023-12-23T15:25:21.596Z,94.38
2023-12-23T15:26:21.582Z,94.49
2023-12-23T15:27:21.520Z,94.38
2023-12-23T15:28:21.500Z,94.28
2023-12-23T15:29:21.534Z,93.97
2023-12-23T15:30:21.524Z,93.55
2023-12-23T15:31:21.479Z,94.07
2023-12-23T15:32:21.489Z,94.28
2023-12-23T15:33:21.462Z,94.38
2023-12-23T15:34:21.442Z,93.55
2023-12-23T15:35:21.473Z,93.62
2023-12-23T15:36:21.440Z,93.72
2023-12-23T15:37:21.410Z,93.82
2023-12-23T15:38:21.446Z,93.72
2023-12-23T15:39:21.381Z,94.13
2023-12-23T15:40:21.416Z,94.03
2023-12-23T15:41:21.430Z,93.93
2023-12-23T15:42:21.402Z,93.82
2023-12-23T15:43:21.368Z,93.45
2023-12-23T15:44:21.387Z,93.41
2023-12-23T15:45:21.330Z,93.45
2023-12-23T15:46:21.326Z,93.72
2023-12-23T15:47:21.393Z,93.10
2023-12-23T15:48:21.414Z,92.72
2023-12-23T15:49:21.333Z,92.20
2023-12-23T15:50:21.347Z,91.37
2023-12-23T15:51:21.259Z,91.37
2023-12-23T15:52:21.263Z,91.89
2023-12-23T15:53:21.333Z,91.99
2023-12-23T15:54:21.365Z,92.41
2023-12-23T15:55:21.260Z,92.41
2023-12-23T15:56:21.277Z,92.93
2023-12-23T15:57:21.188Z,92.72
2023-12-23T15:58:21.206Z,92.41
2023-12-23T15:59:21.245Z,92.30
2023-12-23T16:00:21.188Z,92.41
2023-12-23T16:01:21.148Z,92.10
2023-12-23T16:02:21.182Z,92.51
2023-12-23T16:03:21.166Z,92.72
2023-12-23T16:04:21.144Z,92.51
2023-12-23T16:05:21.163Z,92.82
2023-12-23T16:06:21.153Z,92.30
2023-12-23T16:07:21.078Z,91.27
2023-12-23T16:08:21.123Z,91.68
2023-12-23T16:09:21.123Z,91.89
2023-12-23T16:10:21.112Z,91.58
2023-12-23T16:11:21.171Z,91.27